Time;durP1;ratioP1;P1;durP2;ratioP2;P2;SDS_P1;SDS_P2;PMS_P1;PMS_P2;Temp;Humidity;BMP_temperature;BMP_pressure;BME280_temperature;BME280_humidity;BME280_pressure;Samples;Min_cycle;Max_cycle;Signal;HPM_P1;HPM_P2
2024/01/27 00:01:36;;;;;;;2.10;2.00;;;17.40;68.60;;;;;;5046145;28;43389;-77
2024/01/27 00:04:05;;;;;;;1.70;1.70;;;17.40;68.80;;;;;;5047040;28;43401;-77
2024/01/27 00:06:33;;;;;;;1.67;1.67;;;17.40;68.80;;;;;;5056510;28;44357;-76
2024/01/27 00:09:01;;;;;;;1.50;1.50;;;17.40;68.80;;;;;;5048789;28;43467;-75
2024/01/27 00:11:29;;;;;;;1.80;1.80;;;17.40;68.90;;;;;;5034437;28;43522;-71
2024/01/27 00:13:58;;;;;;;1.90;1.90;;;17.30;68.90;;;;;;5036201;28;43556;-69
2024/01/27 00:16:27;;;;;;;1.63;1.63;;;17.30;69.00;;;;;;5029255;28;46268;-70
2024/01/27 00:18:56;;;;;;;1.60;1.60;;;17.30;69.10;;;;;;5027109;28;44730;-70
2024/01/27 00:21:24;;;;;;;1.77;1.77;;;17.30;69.20;;;;;;5028274;28;43446;-70
2024/01/27 00:23:53;;;;;;;1.60;1.60;;;17.30;69.00;;;;;;5034191;28;43438;-70
2024/01/27 00:26:21;;;;;;;1.80;1.80;;;17.30;69.10;;;;;;5028889;28;43919;-71
2024/01/27 00:28:49;;;;;;;1.53;1.50;;;17.30;69.20;;;;;;5026965;28;44588;-70
2024/01/27 00:31:17;;;;;;;1.80;1.70;;;17.20;69.10;;;;;;5030946;28;43312;-70
2024/01/27 00:33:45;;;;;;;1.70;1.70;;;17.20;69.20;;;;;;5035028;28;43466;-71
2024/01/27 00:36:15;;;;;;;1.77;1.70;;;17.20;69.30;;;;;;5031276;28;43844;-71
2024/01/27 00:38:43;;;;;;;1.50;1.50;;;17.30;69.20;;;;;;5026689;28;45095;-71
2024/01/27 00:41:17;;;;;;;1.77;1.77;;;17.40;68.80;;;;;;5027881;28;43420;-73
2024/01/27 00:43:46;;;;;;;1.57;1.57;;;17.40;68.50;;;;;;5030470;28;43899;-71
2024/01/27 00:46:14;;;;;;;1.50;1.50;;;17.40;68.50;;;;;;5028403;28;43599;-70
2024/01/27 00:48:42;;;;;;;1.87;1.80;;;17.40;68.70;;;;;;5026859;28;45106;-69
2024/01/27 00:51:10;;;;;;;1.53;1.53;;;17.40;68.80;;;;;;5026220;28;43501;-76
2024/01/27 00:53:41;;;;;;;1.80;1.80;;;17.40;68.80;;;;;;5027474;28;43443;-78
2024/01/27 00:56:09;;;;;;;1.50;1.50;;;17.30;68.70;;;;;;5025186;28;44289;-76
2024/01/27 00:58:37;;;;;;;1.67;1.67;;;17.30;68.80;;;;;;5026676;28;43399;-75
2024/01/27 01:01:05;;;;;;;1.57;1.57;;;17.30;68.90;;;;;;5027025;28;43855;-75
2024/01/27 01:03:34;;;;;;;1.57;1.57;;;17.30;69.00;;;;;;5026838;28;43539;-75
2024/01/27 01:06:02;;;;;;;1.60;1.60;;;17.20;69.10;;;;;;5029331;28;43860;-76
2024/01/27 01:08:31;;;;;;;1.60;1.60;;;17.20;69.10;;;;;;5018525;28;45044;-75
2024/01/27 01:11:01;;;;;;;1.40;1.40;;;17.20;69.00;;;;;;5025672;28;43454;-76
2024/01/27 01:13:29;;;;;;;1.30;1.30;;;17.20;69.00;;;;;;5026935;28;43429;-75
2024/01/27 01:15:57;;;;;;;1.47;1.47;;;17.20;69.80;;;;;;5028504;28;43652;-75
2024/01/27 01:18:25;;;;;;;1.60;1.60;;;17.20;69.10;;;;;;5028790;28;44771;-75
2024/01/27 01:20:53;;;;;;;1.70;1.60;;;17.20;69.20;;;;;;5029242;28;43463;-72
2024/01/27 01:23:22;;;;;;;1.40;1.40;;;17.20;69.30;;;;;;5030304;28;43743;-71
2024/01/27 01:25:50;;;;;;;1.47;1.47;;;17.30;69.10;;;;;;5028896;28;45774;-71
2024/01/27 01:28:19;;;;;;;1.50;1.50;;;17.40;68.70;;;;;;5030190;28;43477;-72
2024/01/27 01:30:49;;;;;;;1.43;1.43;;;17.40;68.50;;;;;;5029859;28;43399;-71
2024/01/27 01:33:17;;;;;;;1.40;1.40;;;17.40;68.50;;;;;;5030352;28;43519;-72
2024/01/27 01:35:47;;;;;;;1.33;1.33;;;17.40;68.70;;;;;;5032343;28;43769;-72
2024/01/27 01:38:15;;;;;;;1.57;1.57;;;17.30;68.80;;;;;;5028244;28;44898;-71
2024/01/27 01:40:43;;;;;;;1.50;1.50;;;17.30;68.80;;;;;;5028291;28;43575;-71
2024/01/27 01:43:12;;;;;;;1.50;1.50;;;17.30;68.70;;;;;;4990559;28;43527;-71
2024/01/27 01:45:42;;;;;;;1.30;1.30;;;17.30;68.90;;;;;;4989917;28;43836;-70
2024/01/27 01:48:10;;;;;;;1.50;1.50;;;17.30;68.90;;;;;;4988712;28;44770;-72
2024/01/27 01:50:38;;;;;;;1.43;1.43;;;17.20;68.90;;;;;;4993499;28;44003;-71
2024/01/27 01:53:06;;;;;;;1.50;1.50;;;17.20;69.00;;;;;;4990907;28;44045;-71
2024/01/27 01:55:34;;;;;;;1.50;1.40;;;17.20;69.10;;;;;;4990104;28;43865;-71
2024/01/27 01:58:02;;;;;;;1.53;1.40;;;17.20;68.90;;;;;;4988105;28;44424;-72
2024/01/27 02:00:30;;;;;;;1.43;1.43;;;17.20;69.00;;;;;;4997402;28;43400;-76
2024/01/27 02:03:00;;;;;;;1.60;1.60;;;17.20;69.00;;;;;;5003065;28;44162;-76
2024/01/27 02:05:28;;;;;;;1.33;1.33;;;17.20;69.10;;;;;;5006176;28;43607;-76
2024/01/27 02:07:59;;;;;;;1.30;1.30;;;17.20;69.10;;;;;;5003665;28;44585;-76
2024/01/27 02:10:30;;;;;;;1.40;1.40;;;17.20;69.30;;;;;;5004925;28;43404;-78
2024/01/27 02:12:58;;;;;;;1.47;1.47;;;17.20;69.10;;;;;;5005299;28;43463;-77
2024/01/27 02:15:26;;;;;;;1.50;1.50;;;17.30;68.70;;;;;;5006664;28;43608;-76
2024/01/27 02:17:54;;;;;;;1.37;1.37;;;17.40;68.40;;;;;;5006823;28;43382;-76
2024/01/27 02:20:24;;;;;;;1.40;1.40;;;17.40;68.20;;;;;;5007892;28;43446;-75
2024/01/27 02:22:52;;;;;;;1.47;1.37;;;17.40;69.00;;;;;;5006812;28;43436;-76
2024/01/27 02:25:21;;;;;;;1.37;1.37;;;17.40;68.50;;;;;;5007425;28;43619;-76
2024/01/27 02:27:49;;;;;;;1.27;1.27;;;17.40;68.60;;;;;;5005809;28;44726;-76
2024/01/27 02:30:17;;;;;;;1.43;1.43;;;17.30;68.30;;;;;;5001243;28;43794;-70
2024/01/27 02:32:45;;;;;;;1.60;1.50;;;17.30;68.50;;;;;;4991211;28;43466;-70
2024/01/27 02:35:14;;;;;;;1.43;1.43;;;17.30;68.70;;;;;;4991000;28;44605;-70
2024/01/27 02:37:42;;;;;;;1.37;1.37;;;17.30;68.80;;;;;;4993000;28;43483;-69
2024/01/27 02:40:11;;;;;;;1.47;1.40;;;17.20;68.80;;;;;;4992858;28;43424;-70
2024/01/27 02:42:41;;;;;;;1.60;1.60;;;17.20;69.00;;;;;;5023253;28;43471;-70
2024/01/27 02:45:10;;;;;;;1.20;1.20;;;17.20;68.80;;;;;;5037258;28;43809;-71
2024/01/27 02:47:38;;;;;;;1.40;1.40;;;17.20;68.90;;;;;;5037915;28;43404;-69
2024/01/27 02:50:07;;;;;;;1.30;1.30;;;17.20;68.90;;;;;;5031510;28;43421;-71
2024/01/27 02:52:36;;;;;;;1.40;1.40;;;17.20;69.00;;;;;;5031461;28;43581;-69
2024/01/27 02:55:04;;;;;;;1.27;1.27;;;17.20;69.80;;;;;;5033947;28;43607;-72
2024/01/27 02:57:32;;;;;;;1.37;1.37;;;17.20;69.20;;;;;;5031276;28;44733;-73
2024/01/27 03:00:02;;;;;;;1.10;1.10;;;17.20;69.00;;;;;;5037294;28;43434;-71
2024/01/27 03:02:30;;;;;;;1.20;1.20;;;17.20;69.00;;;;;;5034208;28;43418;-70
2024/01/27 03:04:58;;;;;;;1.30;1.30;;;17.20;69.00;;;;;;5030719;28;43896;-70
2024/01/27 03:07:27;;;;;;;1.30;1.30;;;17.20;69.00;;;;;;5032663;28;44319;-71
2024/01/27 03:09:55;;;;;;;1.40;1.40;;;17.20;69.00;;;;;;5029718;28;43439;-74
2024/01/27 03:12:23;;;;;;;1.20;1.20;;;17.10;69.00;;;;;;5030261;28;43460;-74
2024/01/27 03:14:52;;;;;;;1.30;1.30;;;17.20;69.20;;;;;;5026227;28;45675;-75
2024/01/27 03:17:21;;;;;;;1.13;1.13;;;17.20;68.80;;;;;;5027952;28;43996;-74
2024/01/27 03:19:49;;;;;;;1.20;1.20;;;17.30;68.50;;;;;;5027980;28;43479;-76
2024/01/27 03:22:18;;;;;;;1.27;1.20;;;17.40;68.20;;;;;;5033657;28;43897;-77
2024/01/27 03:24:46;;;;;;;1.20;1.20;;;17.40;68.20;;;;;;5028952;28;43616;-74
2024/01/27 03:27:14;;;;;;;1.17;1.17;;;17.30;68.30;;;;;;5035621;28;44014;-75
2024/01/27 03:29:42;;;;;;;1.50;1.50;;;17.30;68.50;;;;;;5027631;28;43885;-75
2024/01/27 03:32:10;;;;;;;1.17;1.17;;;17.30;68.40;;;;;;5030061;28;43389;-75
2024/01/27 03:34:43;;;;;;;1.27;1.27;;;17.30;68.50;;;;;;5028183;28;43613;-75
2024/01/27 03:37:12;;;;;;;1.10;1.10;;;17.20;68.50;;;;;;5028186;28;43349;-75
2024/01/27 03:39:42;;;;;;;1.20;1.20;;;17.20;68.70;;;;;;5028110;28;43412;-74
2024/01/27 03:42:10;;;;;;;1.20;1.20;;;17.20;68.80;;;;;;5027983;28;43463;-76
2024/01/27 03:44:38;;;;;;;1.27;1.27;;;17.20;69.00;;;;;;5031176;28;43983;-75
2024/01/27 03:47:07;;;;;;;1.30;1.30;;;17.20;68.90;;;;;;5026268;28;44702;-75
2024/01/27 03:49:36;;;;;;;1.30;1.30;;;17.20;68.90;;;;;;5026033;28;43472;-75
2024/01/27 03:52:07;;;;;;;1.30;1.30;;;17.10;68.90;;;;;;5026541;28;43498;-74
2024/01/27 03:54:35;;;;;;;1.10;1.10;;;17.10;68.90;;;;;;5025720;28;43595;-75
2024/01/27 03:57:03;;;;;;;1.40;1.40;;;17.10;69.00;;;;;;5027599;28;43460;-75
2024/01/27 03:59:31;;;;;;;1.23;1.23;;;17.10;69.10;;;;;;5027293;28;43371;-75
2024/01/27 04:01:59;;;;;;;1.40;1.40;;;17.10;69.20;;;;;;5026411;28;44145;-75
2024/01/27 04:04:27;;;;;;;1.10;1.10;;;17.20;69.00;;;;;;5027285;28;43880;-75
2024/01/27 04:06:56;;;;;;;1.00;1.00;;;17.30;68.60;;;;;;5027914;28;44758;-76
2024/01/27 04:09:25;;;;;;;1.23;1.23;;;17.30;68.30;;;;;;5030441;28;43529;-74
2024/01/27 04:11:53;;;;;;;1.10;1.10;;;17.30;68.40;;;;;;5027969;28;43357;-75
2024/01/27 04:14:21;;;;;;;1.20;1.20;;;17.30;68.50;;;;;;5027121;28;43812;-75
2024/01/27 04:16:50;;;;;;;1.10;1.10;;;17.20;68.60;;;;;;5025786;28;44566;-75
2024/01/27 04:19:18;;;;;;;1.33;1.27;;;17.20;68.50;;;;;;5027293;28;43346;-76
2024/01/27 04:21:47;;;;;;;1.20;1.20;;;17.20;68.40;;;;;;5026555;28;43440;-75
2024/01/27 04:24:15;;;;;;;1.20;1.20;;;17.20;68.50;;;;;;5025586;28;45694;-75
2024/01/27 04:26:45;;;;;;;1.20;1.20;;;17.20;68.60;;;;;;5026164;28;45141;-75
2024/01/27 04:29:15;;;;;;;1.10;1.10;;;17.20;68.70;;;;;;5027224;28;43920;-75
2024/01/27 04:31:43;;;;;;;1.40;1.40;;;17.20;68.80;;;;;;5028572;28;43894;-74
2024/01/27 04:34:11;;;;;;;1.20;1.20;;;17.20;68.70;;;;;;5026827;28;46081;-75
2024/01/27 04:36:40;;;;;;;1.10;1.10;;;17.20;68.60;;;;;;5027200;28;43430;-75
2024/01/27 04:39:09;;;;;;;1.30;1.30;;;17.20;68.60;;;;;;5027078;28;43481;-77
2024/01/27 04:41:43;;;;;;;1.17;1.17;;;17.20;68.60;;;;;;5026813;28;43961;-77
2024/01/27 04:44:12;;;;;;;1.30;1.30;;;17.20;68.70;;;;;;5026728;28;43586;-75
2024/01/27 04:46:40;;;;;;;1.00;1.00;;;17.20;68.70;;;;;;5027034;28;43387;-77
2024/01/27 04:49:08;;;;;;;1.10;1.10;;;17.20;68.90;;;;;;5029149;28;43806;-76
2024/01/27 04:51:36;;;;;;;1.20;1.20;;;17.20;68.70;;;;;;5021775;28;43636;-76
2024/01/27 04:54:05;;;;;;;1.30;1.30;;;17.30;68.30;;;;;;5026882;28;43607;-76
2024/01/27 04:56:33;;;;;;;1.40;1.40;;;17.40;68.00;;;;;;5026866;28;43466;-75
2024/01/27 04:59:01;;;;;;;1.30;1.30;;;17.40;67.80;;;;;;5026219;28;43456;-75
2024/01/27 05:01:30;;;;;;;1.03;1.03;;;17.40;67.90;;;;;;5027419;28;43492;-75
2024/01/27 05:03:58;;;;;;;1.53;1.50;;;17.30;68.20;;;;;;5027308;28;45715;-75
2024/01/27 05:06:26;;;;;;;1.43;1.43;;;17.30;68.10;;;;;;5022473;28;44640;-75
2024/01/27 05:08:55;;;;;;;1.20;1.20;;;17.30;68.10;;;;;;5026604;28;43400;-75
2024/01/27 05:11:31;;;;;;;1.30;1.30;;;17.30;68.20;;;;;;5025438;28;43543;-74
2024/01/27 05:13:59;;;;;;;1.30;1.30;;;17.30;68.30;;;;;;5027964;28;44029;-74
2024/01/27 05:16:27;;;;;;;1.20;1.20;;;17.20;68.30;;;;;;5026440;28;43422;-75
2024/01/27 05:18:56;;;;;;;1.13;1.13;;;17.20;68.40;;;;;;5026388;28;43546;-75
2024/01/27 05:21:27;;;;;;;1.47;1.47;;;17.20;68.50;;;;;;5033250;28;43543;-76
2024/01/27 05:23:55;;;;;;;1.23;1.23;;;17.20;68.30;;;;;;5021252;28;45455;-75
2024/01/27 05:26:23;;;;;;;1.17;1.17;;;17.20;68.40;;;;;;5030328;28;43547;-75
2024/01/27 05:28:51;;;;;;;1.10;1.10;;;17.20;69.20;;;;;;5026677;28;43339;-74
2024/01/27 05:31:19;;;;;;;1.10;1.10;;;17.20;68.50;;;;;;5025836;28;43504;-74
2024/01/27 05:33:47;;;;;;;0.90;0.90;;;17.20;68.60;;;;;;5024516;28;43876;-75
2024/01/27 05:36:17;;;;;;;1.13;1.13;;;17.20;68.80;;;;;;5031943;28;43439;-75
2024/01/27 05:38:45;;;;;;;1.17;1.17;;;17.20;68.50;;;;;;5026310;28;43492;-75
2024/01/27 05:41:13;;;;;;;1.10;1.10;;;17.20;68.50;;;;;;5026293;28;43517;-75
2024/01/27 05:43:41;;;;;;;1.10;1.10;;;17.20;68.60;;;;;;5026199;28;43883;-76
2024/01/27 05:46:10;;;;;;;1.03;1.03;;;17.20;68.60;;;;;;5025769;28;43511;-75
2024/01/27 05:48:38;;;;;;;1.03;1.03;;;17.20;68.70;;;;;;5023761;28;43431;-75
2024/01/27 05:51:07;;;;;;;1.17;1.17;;;17.10;68.80;;;;;;5025260;28;43459;-76
2024/01/27 05:53:37;;;;;;;1.00;1.00;;;17.20;68.90;;;;;;5023953;28;46066;-75
2024/01/27 05:56:05;;;;;;;1.10;1.10;;;17.20;68.50;;;;;;5024611;28;45901;-75
2024/01/27 05:58:33;;;;;;;1.27;1.27;;;17.40;68.20;;;;;;5026213;28;43433;-77
2024/01/27 06:01:01;;;;;;;1.23;1.23;;;17.40;67.90;;;;;;5025230;28;43673;-70
2024/01/27 06:03:31;;;;;;;1.20;1.20;;;17.40;67.80;;;;;;5028359;28;45866;-70
2024/01/27 06:05:59;;;;;;;1.10;1.10;;;17.30;67.90;;;;;;5032985;28;43701;-70
2024/01/27 06:08:27;;;;;;;1.30;1.30;;;17.30;68.10;;;;;;5029038;28;43474;-69
2024/01/27 06:10:57;;;;;;;1.40;1.40;;;17.30;67.90;;;;;;5029645;28;43534;-70
2024/01/27 06:13:25;;;;;;;1.20;1.20;;;17.30;68.10;;;;;;5031097;28;44064;-69
2024/01/27 06:15:53;;;;;;;1.10;1.10;;;17.30;68.20;;;;;;5030139;28;43421;-70
2024/01/27 06:18:21;;;;;;;1.10;1.10;;;17.20;68.30;;;;;;5030826;28;43337;-69
2024/01/27 06:20:49;;;;;;;1.20;1.20;;;17.20;68.30;;;;;;5037300;28;43874;-69
2024/01/27 06:23:18;;;;;;;1.13;1.13;;;17.20;68.60;;;;;;5030818;28;43948;-70
2024/01/27 06:25:46;;;;;;;1.10;1.10;;;17.20;68.40;;;;;;5024054;28;43992;-70
2024/01/27 06:28:15;;;;;;;1.20;1.20;;;17.20;68.40;;;;;;5030294;28;43459;-71
2024/01/27 06:30:43;;;;;;;1.23;1.23;;;17.20;68.40;;;;;;5025406;28;43558;-70
2024/01/27 06:33:11;;;;;;;1.07;1.07;;;17.20;68.50;;;;;;5024484;28;43933;-72
2024/01/27 06:35:39;;;;;;;1.20;1.20;;;17.20;68.60;;;;;;5024948;28;43438;-72
2024/01/27 06:38:08;;;;;;;1.13;1.13;;;17.20;68.70;;;;;;5023258;28;43435;-71
2024/01/27 06:40:36;;;;;;;1.13;1.10;;;17.20;68.60;;;;;;5027001;28;43410;-71
2024/01/27 06:43:04;;;;;;;1.13;1.13;;;17.30;68.30;;;;;;5028595;28;44254;-72
2024/01/27 06:45:34;;;;;;;1.03;1.03;;;17.30;68.00;;;;;;5026040;28;44108;-72
2024/01/27 06:48:02;;;;;;;1.00;1.00;;;17.30;68.00;;;;;;5029031;28;43357;-71
2024/01/27 06:50:30;;;;;;;1.23;1.23;;;17.30;68.10;;;;;;5029176;28;43404;-72
2024/01/27 06:52:59;;;;;;;1.43;1.43;;;17.20;68.10;;;;;;5028708;28;43662;-71
2024/01/27 06:55:27;;;;;;;1.10;1.10;;;17.20;68.20;;;;;;5027205;28;44820;-70
2024/01/27 06:57:55;;;;;;;1.10;1.10;;;17.20;68.10;;;;;;5026134;28;43467;-71
2024/01/27 07:00:24;;;;;;;1.17;1.17;;;17.20;68.20;;;;;;5031526;28;43450;-72
2024/01/27 07:02:54;;;;;;;1.13;1.13;;;17.20;68.30;;;;;;5028495;28;43848;-71
2024/01/27 07:05:22;;;;;;;1.20;1.20;;;17.20;68.40;;;;;;5031749;28;43490;-71
2024/01/27 07:07:50;;;;;;;1.23;1.23;;;17.20;68.40;;;;;;5027170;28;43441;-71
2024/01/27 07:10:18;;;;;;;1.07;1.07;;;17.20;68.50;;;;;;5026820;28;43384;-72
2024/01/27 07:12:46;;;;;;;1.10;1.10;;;17.20;68.30;;;;;;5031851;28;43863;-71
2024/01/27 07:15:14;;;;;;;1.20;1.20;;;17.20;68.40;;;;;;5032046;28;43535;-71
2024/01/27 07:17:43;;;;;;;1.10;1.10;;;17.20;68.40;;;;;;5027243;28;43348;-71
2024/01/27 07:20:13;;;;;;;1.30;1.30;;;17.10;68.40;;;;;;5028866;28;43472;-72
2024/01/27 07:22:42;;;;;;;1.20;1.20;;;17.10;68.40;;;;;;5023583;28;43904;-72
2024/01/27 07:25:10;;;;;;;1.10;1.10;;;17.10;68.60;;;;;;5028705;28;43313;-71
2024/01/27 07:27:39;;;;;;;1.00;1.00;;;17.20;68.60;;;;;;5028243;28;43711;-71
2024/01/27 07:30:10;;;;;;;1.30;1.30;;;17.30;68.30;;;;;;5032179;28;43803;-72
2024/01/27 07:32:40;;;;;;;1.23;1.23;;;17.40;67.90;;;;;;5031571;28;43599;-71
2024/01/27 07:35:09;;;;;;;1.10;1.10;;;17.40;67.70;;;;;;5028056;28;43425;-70
2024/01/27 07:37:38;;;;;;;0.97;0.97;;;17.30;67.70;;;;;;5028171;28;43505;-71
2024/01/27 07:40:08;;;;;;;1.20;1.20;;;17.30;68.00;;;;;;5028172;28;43577;-71
2024/01/27 07:42:36;;;;;;;1.20;1.20;;;17.30;68.00;;;;;;5026625;28;45379;-71
2024/01/27 07:45:06;;;;;;;1.10;1.10;;;17.30;67.90;;;;;;5033074;28;43558;-72
2024/01/27 07:47:34;;;;;;;1.30;1.30;;;17.30;68.00;;;;;;5028271;28;43312;-72
2024/01/27 07:50:02;;;;;;;1.20;1.20;;;17.20;68.00;;;;;;5028358;28;43869;-70
2024/01/27 07:52:31;;;;;;;1.23;1.23;;;17.20;68.10;;;;;;5028586;28;45922;-70
2024/01/27 07:55:00;;;;;;;1.10;1.10;;;17.20;68.30;;;;;;5027399;28;43995;-70
2024/01/27 07:57:28;;;;;;;1.00;1.00;;;17.20;68.30;;;;;;5028956;28;43962;-70
2024/01/27 07:59:56;;;;;;;1.20;1.20;;;17.20;68.20;;;;;;5030423;28;44437;-69
2024/01/27 08:02:26;;;;;;;1.10;1.10;;;17.20;68.30;;;;;;5033183;28;45714;-69
2024/01/27 08:04:54;;;;;;;1.20;1.20;;;17.20;68.30;;;;;;5026995;28;44704;-70
2024/01/27 08:07:22;;;;;;;1.13;1.13;;;17.20;68.40;;;;;;5028412;28;43929;-69
2024/01/27 08:09:50;;;;;;;1.40;1.40;;;17.10;68.30;;;;;;5028996;28;43582;-70
2024/01/27 08:12:19;;;;;;;1.20;1.20;;;17.10;68.30;;;;;;5028237;28;44029;-70
2024/01/27 08:14:49;;;;;;;1.40;1.40;;;17.20;68.30;;;;;;5028447;28;43447;-69
2024/01/27 08:17:17;;;;;;;1.20;1.20;;;17.20;68.30;;;;;;5028457;28;43402;-70
2024/01/27 08:19:45;;;;;;;1.63;1.63;;;17.20;68.30;;;;;;5031167;28;43493;-74
2024/01/27 08:22:13;;;;;;;1.50;1.50;;;17.10;68.20;;;;;;5026863;28;45797;-75
2024/01/27 08:24:42;;;;;;;1.30;1.30;;;17.10;68.30;;;;;;5025166;28;44834;-75
2024/01/27 08:27:10;;;;;;;1.40;1.40;;;17.10;68.50;;;;;;5028934;28;43440;-74
2024/01/27 08:29:39;;;;;;;1.50;1.40;;;17.20;68.30;;;;;;5026136;28;43632;-75
2024/01/27 08:32:07;;;;;;;1.40;1.40;;;17.30;68.10;;;;;;5025484;28;46018;-74
2024/01/27 08:34:36;;;;;;;1.30;1.30;;;17.40;67.70;;;;;;5026334;28;44720;-74
2024/01/27 08:37:14;;;;;;;1.30;1.30;;;17.40;67.40;;;;;;5024935;28;43415;-74
2024/01/27 08:39:42;;;;;;;1.60;1.60;;;17.40;67.50;;;;;;5026048;28;43622;-75
2024/01/27 08:42:10;;;;;;;1.30;1.30;;;17.30;67.70;;;;;;5019919;28;46103;-75
2024/01/27 08:44:40;;;;;;;1.50;1.50;;;17.30;67.80;;;;;;5027047;28;43379;-74
2024/01/27 08:47:08;;;;;;;1.40;1.40;;;17.30;67.70;;;;;;5024320;28;43486;-73
2024/01/27 08:49:36;;;;;;;1.30;1.30;;;17.30;67.90;;;;;;5025713;28;43389;-75
2024/01/27 08:52:05;;;;;;;1.40;1.40;;;17.20;67.90;;;;;;5024533;28;46084;-76
2024/01/27 08:54:33;;;;;;;1.30;1.30;;;17.20;68.00;;;;;;5026717;28;44054;-74
2024/01/27 08:57:02;;;;;;;1.27;1.27;;;17.20;68.20;;;;;;5026416;28;43392;-74
2024/01/27 08:59:30;;;;;;;1.10;1.10;;;17.20;68.30;;;;;;5027167;28;43511;-71
2024/01/27 09:01:59;;;;;;;1.30;1.30;;;17.20;68.20;;;;;;5025870;28;45709;-74
2024/01/27 09:04:27;;;;;;;1.30;1.30;;;17.20;68.30;;;;;;5027212;28;44353;-73
2024/01/27 09:06:55;;;;;;;1.47;1.47;;;17.20;68.30;;;;;;5027164;28;43363;-74
2024/01/27 09:09:23;;;;;;;1.50;1.50;;;17.10;68.20;;;;;;5028600;28;43488;-74
2024/01/27 09:11:51;;;;;;;1.40;1.40;;;17.10;68.30;;;;;;5028206;28;44000;-74
2024/01/27 09:14:20;;;;;;;1.53;1.53;;;17.10;68.50;;;;;;5027768;28;43626;-75
2024/01/27 09:16:48;;;;;;;1.30;1.30;;;17.10;68.40;;;;;;5025580;28;43954;-73
2024/01/27 09:19:17;;;;;;;1.50;1.50;;;17.20;68.10;;;;;;5027388;28;43400;-74
2024/01/27 09:21:45;;;;;;;1.60;1.50;;;17.30;68.60;;;;;;5036097;28;45753;-73
2024/01/27 09:24:13;;;;;;;1.43;1.43;;;17.30;67.80;;;;;;5027859;28;43898;-73
2024/01/27 09:26:43;;;;;;;1.60;1.60;;;17.30;67.90;;;;;;5038159;28;43404;-78
2024/01/27 09:29:11;;;;;;;1.40;1.40;;;17.20;68.00;;;;;;5032386;28;43395;-75
2024/01/27 09:31:39;;;;;;;1.37;1.37;;;17.20;68.20;;;;;;5029741;28;45667;-77
2024/01/27 09:34:07;;;;;;;1.30;1.30;;;17.20;68.00;;;;;;5024188;28;44371;-75
2024/01/27 09:36:37;;;;;;;1.50;1.50;;;17.20;68.10;;;;;;5028207;28;43786;-75
2024/01/27 09:39:05;;;;;;;1.37;1.37;;;17.20;68.20;;;;;;5030432;28;43502;-74
2024/01/27 09:41:33;;;;;;;1.40;1.40;;;17.20;68.20;;;;;;5028656;28;45791;-73
2024/01/27 09:44:02;;;;;;;1.57;1.57;;;17.10;68.20;;;;;;5029838;28;43408;-77
2024/01/27 09:46:31;;;;;;;1.40;1.40;;;17.10;68.40;;;;;;5036259;28;43424;-75
2024/01/27 09:48:59;;;;;;;1.37;1.37;;;17.10;68.20;;;;;;5030997;28;43561;-77
2024/01/27 09:51:27;;;;;;;1.60;1.60;;;17.10;68.20;;;;;;5030476;28;45752;-75
2024/01/27 09:53:57;;;;;;;1.40;1.40;;;17.10;68.30;;;;;;5034895;28;45237;-74
2024/01/27 09:56:25;;;;;;;1.53;1.43;;;17.10;68.40;;;;;;5032493;28;43945;-75
2024/01/27 09:58:55;;;;;;;1.40;1.40;;;17.10;68.50;;;;;;5033483;28;43382;-76
2024/01/27 10:01:23;;;;;;;1.63;1.40;;;17.10;68.50;;;;;;5031045;28;45369;-76
2024/01/27 10:03:51;;;;;;;1.60;1.60;;;17.10;68.50;;;;;;5021671;28;44955;-76
2024/01/27 10:06:19;;;;;;;2.03;1.50;;;17.20;68.30;;;;;;5032301;28;44133;-78
2024/01/27 10:08:52;;;;;;;1.60;1.60;;;17.30;68.00;;;;;;5027590;28;44042;-77
2024/01/27 10:11:22;;;;;;;1.30;1.30;;;17.30;67.70;;;;;;5027677;28;44032;-78
2024/01/27 10:13:55;;;;;;;1.57;1.50;;;17.30;67.70;;;;;;5030571;28;45061;-78
2024/01/27 10:16:27;;;;;;;1.57;1.57;;;17.30;67.90;;;;;;5029274;28;43487;-79
2024/01/27 10:19:01;;;;;;;1.73;1.63;;;17.30;68.00;;;;;;5029563;28;43977;-79
2024/01/27 10:21:30;;;;;;;1.70;1.60;;;17.30;68.00;;;;;;5027407;28;46329;-78
2024/01/27 10:23:58;;;;;;;1.50;1.50;;;17.20;68.00;;;;;;5026819;28;44768;-77
2024/01/27 10:26:31;;;;;;;1.43;1.43;;;17.20;68.10;;;;;;5029119;28;43403;-78
2024/01/27 10:28:59;;;;;;;1.33;1.33;;;17.20;68.20;;;;;;5029746;28;43512;-78
2024/01/27 10:31:28;;;;;;;1.90;1.80;;;17.20;68.30;;;;;;5035272;28;44581;-77
2024/01/27 10:33:57;;;;;;;1.47;1.47;;;17.20;68.40;;;;;;5033973;28;44742;-77
2024/01/27 10:36:26;;;;;;;1.60;1.60;;;17.20;68.30;;;;;;5034002;28;43404;-77
2024/01/27 10:38:54;;;;;;;1.70;1.60;;;17.20;68.40;;;;;;5038157;28;43868;-78
2024/01/27 10:41:23;;;;;;;1.60;1.60;;;17.10;68.40;;;;;;5035077;28;45309;-78
2024/01/27 10:43:54;;;;;;;1.50;1.50;;;17.10;68.40;;;;;;5036005;28;43440;-78
2024/01/27 10:46:23;;;;;;;1.60;1.60;;;17.10;68.50;;;;;;5035929;28;43502;-77
2024/01/27 10:48:52;;;;;;;1.63;1.63;;;17.10;68.60;;;;;;5032016;28;43451;-77
2024/01/27 10:51:30;;;;;;;1.70;1.60;;;17.10;68.60;;;;;;5034096;28;43921;-77
2024/01/27 10:54:02;;;;;;;1.67;1.57;;;17.20;68.40;;;;;;5035570;28;43413;-79
2024/01/27 10:56:30;;;;;;;1.70;1.70;;;17.30;68.10;;;;;;5029329;28;43435;-75
2024/01/27 10:59:00;;;;;;;1.70;1.60;;;17.30;68.00;;;;;;5035473;28;43540;-78
2024/01/27 11:01:28;;;;;;;2.87;1.60;;;17.30;68.20;;;;;;5033516;28;45668;-76
2024/01/27 11:03:57;;;;;;;1.93;1.83;;;17.20;68.30;;;;;;5026433;28;44720;-77
2024/01/27 11:06:25;;;;;;;2.70;1.97;;;17.20;68.30;;;;;;5028504;28;43733;-78
2024/01/27 11:08:53;;;;;;;2.07;1.97;;;17.20;68.30;;;;;;5028504;28;43499;-77
2024/01/27 11:11:22;;;;;;;2.67;2.47;;;17.20;68.50;;;;;;5028439;28;43888;-78
2024/01/27 11:13:50;;;;;;;3.03;2.57;;;17.20;68.60;;;;;;5028618;28;43947;-78
2024/01/27 11:16:20;;;;;;;2.60;2.40;;;17.20;68.70;;;;;;5029117;28;43412;-79
2024/01/27 11:18:49;;;;;;;2.20;2.10;;;17.20;68.80;;;;;;5030878;28;43412;-77
2024/01/27 11:21:17;;;;;;;3.00;2.53;;;17.20;68.70;;;;;;5033201;28;44033;-71
2024/01/27 11:23:47;;;;;;;2.73;2.53;;;17.20;68.70;;;;;;5030280;28;43501;-73
2024/01/27 11:26:19;;;;;;;2.83;2.63;;;17.20;68.90;;;;;;5032938;28;43480;-72
2024/01/27 11:28:47;;;;;;;3.00;2.80;;;17.20;68.90;;;;;;5032528;28;43475;-73
2024/01/27 11:31:17;;;;;;;2.70;2.50;;;17.20;69.00;;;;;;5027449;28;43878;-72
2024/01/27 11:33:48;;;;;;;4.77;3.00;;;17.20;69.70;;;;;;5028065;28;43858;-73
2024/01/27 11:36:21;;;;;;;4.00;3.00;;;17.20;68.80;;;;;;5028508;28;43763;-72
2024/01/27 11:38:50;;;;;;;2.80;2.53;;;17.20;68.60;;;;;;5031844;28;43425;-73
2024/01/27 11:41:27;;;;;;;4.80;2.90;;;17.30;68.30;;;;;;5028158;28;44013;-72
2024/01/27 11:43:56;;;;;;;3.47;2.80;;;17.30;68.30;;;;;;5026169;28;44218;-73
2024/01/27 11:46:24;;;;;;;4.30;2.87;;;17.30;68.50;;;;;;5028153;28;43456;-73
2024/01/27 11:48:53;;;;;;;3.23;2.70;;;17.30;68.60;;;;;;5027435;28;43642;-73
2024/01/27 11:51:23;;;;;;;2.97;2.67;;;17.30;68.50;;;;;;5028505;28;43854;-80
2024/01/27 11:53:52;;;;;;;3.03;2.70;;;17.30;68.60;;;;;;5026573;28;45399;-79
2024/01/27 11:56:21;;;;;;;3.13;2.83;;;17.30;68.70;;;;;;5030262;28;43787;-79
2024/01/27 11:58:49;;;;;;;3.13;2.70;;;17.30;68.80;;;;;;5027592;28;43455;-79
2024/01/27 12:01:18;;;;;;;3.13;2.87;;;17.30;68.90;;;;;;5025933;28;46176;-77
2024/01/27 12:03:48;;;;;;;3.23;2.73;;;17.30;69.00;;;;;;5027423;28;43475;-78
2024/01/27 12:06:18;;;;;;;4.17;3.33;;;17.20;69.00;;;;;;5028654;28;44426;-78
2024/01/27 12:08:47;;;;;;;3.87;2.80;;;17.20;68.80;;;;;;5022357;28;44338;-78
2024/01/27 12:11:16;;;;;;;2.93;2.70;;;17.30;68.90;;;;;;5027448;28;43740;-78
2024/01/27 12:13:50;;;;;;;4.97;3.17;;;17.20;68.80;;;;;;5028130;28;44666;-78
2024/01/27 12:16:18;;;;;;;2.60;2.40;;;17.20;68.80;;;;;;5028661;28;43830;-78
2024/01/27 12:18:46;;;;;;;4.23;3.00;;;17.20;68.80;;;;;;5026225;28;43448;-78
2024/01/27 12:21:20;;;;;;;3.43;3.13;;;17.20;68.90;;;;;;5028274;28;45692;-78
2024/01/27 12:23:53;;;;;;;3.47;2.90;;;17.20;68.70;;;;;;5025794;28;44368;-80
2024/01/27 12:26:22;;;;;;;3.37;3.07;;;17.30;68.60;;;;;;5033142;28;43862;-79
2024/01/27 12:28:51;;;;;;;4.97;3.43;;;17.40;68.30;;;;;;5027243;28;43544;-79
2024/01/27 12:31:19;;;;;;;4.23;3.00;;;17.40;68.40;;;;;;5046930;28;43714;-72
2024/01/27 12:33:51;;;;;;;3.23;2.93;;;17.40;68.50;;;;;;5047317;28;43489;-74
2024/01/27 12:36:21;;;;;;;3.33;2.90;;;17.40;68.50;;;;;;5047435;28;43428;-77
2024/01/27 12:38:54;;;;;;;3.40;3.10;;;17.40;68.50;;;;;;5048203;28;43464;-73
2024/01/27 12:41:22;;;;;;;2.90;2.70;;;17.40;68.50;;;;;;5051499;28;45710;-74
2024/01/27 12:43:51;;;;;;;3.27;2.97;;;17.40;68.60;;;;;;5045440;28;43490;-75
2024/01/27 12:46:19;;;;;;;3.60;3.00;;;17.40;68.70;;;;;;5046375;28;43667;-74
2024/01/27 12:48:49;;;;;;;3.13;2.83;;;17.40;68.70;;;;;;5051956;28;43501;-74
2024/01/27 12:51:17;;;;;;;3.73;2.80;;;17.40;68.80;;;;;;5037081;28;43663;-73
2024/01/27 12:53:47;;;;;;;4.47;3.33;;;17.30;68.60;;;;;;5045748;28;44718;-72
2024/01/27 12:56:15;;;;;;;3.30;3.00;;;17.30;68.60;;;;;;5041172;28;43717;-74